Time;durP1;ratioP1;P1;durP2;ratioP2;P2;SDS_P1;SDS_P2;PMS_P1;PMS_P2;Temp;Humidity;BMP_temperature;BMP_pressure;BME280_temperature;BME280_humidity;BME280_pressure;Samples;Min_cycle;Max_cycle;Signal;HPM_P1;HPM_P2
2023/04/11 00:01:59;;;;;;;6.77;3.47;;;;;;;-145.18;100.00;60484.78;5067403;28;20094;-68
2023/04/11 00:04:25;;;;;;;8.57;4.17;;;;;;;-145.18;100.00;60484.78;5068213;28;20029;-68
2023/04/11 00:06:50;;;;;;;5.60;3.23;;;;;;;-145.18;100.00;60484.78;5054883;28;20029;-68
2023/04/11 00:09:16;;;;;;;6.30;3.37;;;;;;;-145.18;100.00;60484.78;5064263;28;20024;-68
2023/04/11 00:11:42;;;;;;;8.07;3.60;;;;;;;-145.18;100.00;60484.78;5075087;28;20035;-68
2023/04/11 00:14:07;;;;;;;8.10;3.60;;;;;;;-145.18;100.00;60484.78;5067139;28;20542;-68
2023/04/11 00:16:33;;;;;;;7.30;3.50;;;;;;;-145.18;100.00;60484.78;5052231;28;20416;-68
2023/04/11 00:18:59;;;;;;;6.87;3.57;;;;;;;-145.18;100.00;60484.78;5054014;28;20031;-68
2023/04/11 00:21:25;;;;;;;9.13;3.73;;;;;;;-145.18;100.00;60484.78;5059089;28;20052;-68
2023/04/11 00:23:54;;;;;;;7.40;3.70;;;;;;;-145.18;100.00;60484.78;5070369;28;20029;-68
2023/04/11 00:26:20;;;;;;;6.93;3.93;;;;;;;-145.18;100.00;60484.78;5067680;28;20435;-69
2023/04/11 00:28:46;;;;;;;6.70;3.33;;;;;;;-145.18;100.00;60484.78;5063759;28;20036;-68
2023/04/11 00:31:12;;;;;;;7.37;3.37;;;;;;;-145.18;100.00;60484.78;5072680;28;20032;-68
2023/04/11 00:33:38;;;;;;;7.77;3.40;;;;;;;-145.18;100.00;60484.78;5074501;28;20024;-68
2023/04/11 00:36:03;;;;;;;6.97;3.70;;;;;;;-145.18;100.00;60484.78;5070025;28;20028;-69
2023/04/11 00:38:29;;;;;;;8.17;3.73;;;;;;;-145.18;100.00;60484.78;5068159;28;20476;-69
2023/04/11 00:40:54;;;;;;;8.20;4.20;;;;;;;-145.18;100.00;60484.78;5074179;28;20073;-68
2023/04/11 00:43:20;;;;;;;8.40;3.73;;;;;;;-145.18;100.00;60484.78;5072029;28;20036;-68
2023/04/11 00:45:46;;;;;;;8.70;3.30;;;;;;;-145.18;100.00;60484.78;5066648;28;20037;-68
2023/04/11 00:48:12;;;;;;;7.77;3.40;;;;;;;-145.18;100.00;60484.78;5072136;28;20028;-68
2023/04/11 00:50:40;;;;;;;8.27;3.00;;;;;;;-145.18;100.00;60484.78;5070714;28;20036;-68
2023/04/11 00:53:09;;;;;;;9.20;3.37;;;;;;;-145.18;100.00;60484.78;5063879;28;20037;-68
2023/04/11 00:55:35;;;;;;;8.80;3.57;;;;;;;-145.18;100.00;60484.78;5072101;28;20451;-68
2023/04/11 00:58:01;;;;;;;7.67;3.10;;;;;;;-145.18;100.00;60484.78;5056506;28;20033;-68
2023/04/11 01:03:48;;;;;;;9.10;3.50;;;;;;;-145.18;100.00;60484.78;5047389;28;20059;-66
2023/04/11 01:06:16;;;;;;;7.90;3.10;;;;;;;-145.18;100.00;60484.78;5053041;28;20036;-68
2023/04/11 01:08:43;;;;;;;3.87;1.20;;;;;;;-145.18;100.00;60484.78;5057706;28;20036;-67
2023/04/11 01:11:11;;;;;;;3.80;0.83;;;;;;;-145.18;100.00;60484.78;5068385;28;20028;-66
2023/04/11 01:13:40;;;;;;;2.67;0.97;;;;;;;-145.18;100.00;60484.78;5070880;28;20029;-69
2023/04/11 01:16:07;;;;;;;2.83;0.93;;;;;;;-145.18;100.00;60484.78;5060078;28;20025;-68
2023/04/11 01:18:32;;;;;;;4.70;1.10;;;;;;;-145.18;100.00;60484.78;5067535;28;20013;-69
2023/04/11 01:20:59;;;;;;;2.40;0.90;;;;;;;-145.18;100.00;60484.78;5068403;28;20035;-69
2023/04/11 01:23:25;;;;;;;3.63;0.97;;;;;;;-145.18;100.00;60484.78;5067798;28;20021;-69
2023/04/11 01:25:51;;;;;;;2.60;1.10;;;;;;;-145.18;100.00;60484.78;5066908;28;20434;-70
2023/04/11 01:28:20;;;;;;;2.20;0.80;;;;;;;-145.18;100.00;60484.78;5071275;28;20024;-69
2023/04/11 01:30:46;;;;;;;4.97;0.90;;;;;;;-145.18;100.00;60484.78;5065347;28;20028;-69
2023/04/11 01:33:12;;;;;;;4.07;1.20;;;;;;;-145.18;100.00;60484.78;5053689;28;20034;-69
2023/04/11 01:35:38;;;;;;;3.13;1.07;;;;;;;-145.18;100.00;60484.78;5069883;28;20407;-69
2023/04/11 01:38:04;;;;;;;2.70;1.10;;;;;;;-145.18;100.00;60484.78;5066156;28;20035;-70
2023/04/11 01:40:31;;;;;;;2.67;0.97;;;;;;;-145.18;100.00;60484.78;5068909;28;20115;-69
2023/04/11 01:42:57;;;;;;;6.20;1.10;;;;;;;-145.18;100.00;60484.78;5063610;28;20059;-69
2023/04/11 01:45:25;;;;;;;4.97;1.20;;;;;;;-145.18;100.00;60484.78;5065775;28;20029;-70
2023/04/11 01:47:53;;;;;;;3.83;1.27;;;;;;;-145.18;100.00;60484.78;5033331;28;20052;-69
2023/04/11 01:50:19;;;;;;;7.27;1.30;;;;;;;-145.18;100.00;60484.78;5069718;28;20537;-66
2023/04/11 01:52:45;;;;;;;5.10;1.53;;;;;;;-145.18;100.00;60484.78;5068114;28;20146;-66
2023/04/11 01:55:10;;;;;;;4.97;1.30;;;;;;;-145.18;100.00;60484.78;5067858;28;20048;-66
2023/04/11 01:57:36;;;;;;;7.03;1.53;;;;;;;-145.18;100.00;60484.78;5067741;28;20024;-66
2023/04/11 02:00:02;;;;;;;4.47;1.50;;;;;;;-145.18;100.00;60484.78;5073081;28;20043;-66
2023/04/11 02:02:28;;;;;;;4.50;1.50;;;;;;;-145.18;100.00;60484.78;5070966;28;20519;-66
2023/04/11 02:04:53;;;;;;;4.80;1.60;;;;;;;-145.18;100.00;60484.78;5069322;28;20029;-67
2023/04/11 02:07:19;;;;;;;5.23;1.37;;;;;;;-145.18;100.00;60484.78;5069445;28;20028;-67
2023/04/11 02:09:45;;;;;;;3.63;1.10;;;;;;;-145.18;100.00;60484.78;5058457;28;20029;-67
2023/04/11 02:12:10;;;;;;;4.20;1.23;;;;;;;-145.18;100.00;60484.78;5052251;28;20029;-67
2023/04/11 02:14:44;;;;;;;4.30;1.00;;;;;;;-145.18;100.00;60484.78;5063714;28;20104;-67
2023/04/11 02:17:10;;;;;;;3.20;1.27;;;;;;;-145.18;100.00;60484.78;5065023;28;20029;-67
2023/04/11 02:19:37;;;;;;;4.03;1.07;;;;;;;-145.18;100.00;60484.78;5064105;28;20024;-67
2023/04/11 02:22:02;;;;;;;3.97;1.10;;;;;;;-145.18;100.00;60484.78;5059115;28;20028;-70
2023/04/11 02:24:28;;;;;;;2.97;1.27;;;;;;;-145.18;100.00;60484.78;5062114;28;20024;-69
2023/04/11 02:26:53;;;;;;;5.33;1.57;;;;;;;-145.18;100.00;60484.78;5056901;28;20052;-69
2023/04/11 02:29:19;;;;;;;4.57;1.40;;;;;;;-145.18;100.00;60484.78;5065055;28;20031;-69
2023/04/11 02:31:48;;;;;;;6.33;1.53;;;;;;;-145.18;100.00;60484.78;5064212;28;20025;-69
2023/04/11 02:34:13;;;;;;;5.43;1.53;;;;;;;-145.18;100.00;60484.78;5056851;28;20087;-69
2023/04/11 02:36:41;;;;;;;4.13;1.50;;;;;;;-145.18;100.00;60484.78;5068815;28;20028;-69
2023/04/11 02:39:06;;;;;;;7.20;1.90;;;;;;;-145.18;100.00;60484.78;5070371;28;20028;-70
2023/04/11 02:41:32;;;;;;;6.13;1.60;;;;;;;-145.18;100.00;60484.78;5073399;28;20020;-69
2023/04/11 02:43:57;;;;;;;5.87;1.60;;;;;;;-145.18;100.00;60484.78;5076474;28;20021;-69
2023/04/11 02:46:23;;;;;;;6.67;1.77;;;;;;;-145.18;100.00;60484.78;5069886;28;20029;-70
2023/04/11 02:48:49;;;;;;;5.93;1.80;;;;;;;-145.18;100.00;60484.78;5074243;28;20045;-69
2023/04/11 02:51:14;;;;;;;9.40;2.50;;;;;;;-145.18;100.00;60484.78;5076632;28;20104;-69
2023/04/11 02:53:40;;;;;;;8.33;2.23;;;;;;;-145.18;100.00;60484.78;5070249;28;20028;-69
2023/04/11 02:56:09;;;;;;;6.33;2.37;;;;;;;-145.18;100.00;60484.78;5072057;28;20020;-69
2023/04/11 02:58:37;;;;;;;8.67;2.37;;;;;;;-145.18;100.00;60484.78;5070464;28;20094;-69
2023/04/11 03:01:04;;;;;;;6.67;2.30;;;;;;;-145.18;100.00;60484.78;5068772;28;20028;-69
2023/04/11 03:03:30;;;;;;;6.00;2.20;;;;;;;-145.18;100.00;60484.78;5074775;28;20045;-69
2023/04/11 03:05:55;;;;;;;5.47;1.90;;;;;;;-145.18;100.00;60484.78;5076312;28;20185;-69
2023/04/11 03:08:21;;;;;;;7.43;2.10;;;;;;;-145.18;100.00;60484.78;5070450;28;20021;-69
2023/04/11 03:10:47;;;;;;;5.47;1.97;;;;;;;-145.18;100.00;60484.78;5076002;28;20492;-69
2023/04/11 03:13:12;;;;;;;7.43;2.20;;;;;;;-145.18;100.00;60484.78;5074076;28;20044;-69
2023/04/11 03:15:38;;;;;;;8.47;2.30;;;;;;;-145.18;100.00;60484.78;5070266;28;20013;-69
2023/04/11 03:18:03;;;;;;;6.73;1.90;;;;;;;-145.18;100.00;60484.78;5056051;28;20036;-69
2023/04/11 03:20:29;;;;;;;7.27;2.50;;;;;;;-145.18;100.00;60484.78;5055099;28;20021;-69
2023/04/11 03:22:54;;;;;;;7.67;2.57;;;;;;;-145.18;100.00;60484.78;5054588;28;20028;-69
2023/04/11 03:25:20;;;;;;;10.37;2.80;;;;;;;-145.18;100.00;60484.78;5074447;28;20024;-69
2023/04/11 03:27:45;;;;;;;7.83;2.67;;;;;;;-145.18;100.00;60484.78;5072865;28;20098;-68
2023/04/11 03:30:12;;;;;;;9.17;2.60;;;;;;;-145.18;100.00;60484.78;5073368;28;20472;-69
2023/04/11 03:32:37;;;;;;;13.47;2.70;;;;;;;-145.18;100.00;60484.78;5062478;28;20477;-69
2023/04/11 03:35:03;;;;;;;6.30;2.80;;;;;;;-145.18;100.00;60484.78;5073636;28;20099;-69
2023/04/11 03:37:29;;;;;;;8.40;2.87;;;;;;;-145.18;100.00;60484.78;5073522;28;20092;-69
2023/04/11 03:39:54;;;;;;;11.27;3.40;;;;;;;-145.18;100.00;60484.78;5073112;28;20055;-69
2023/04/11 03:42:20;;;;;;;12.73;3.50;;;;;;;-145.18;100.00;60484.78;5072535;28;20023;-69
2023/04/11 03:44:45;;;;;;;12.40;3.33;;;;;;;-145.18;100.00;60484.78;5075044;28;20035;-69
2023/04/11 03:47:11;;;;;;;10.63;3.30;;;;;;;-145.18;100.00;60484.78;5070885;28;20115;-69
2023/04/11 03:49:36;;;;;;;13.27;3.50;;;;;;;-145.18;100.00;60484.78;5073421;28;20039;-69
2023/04/11 03:52:02;;;;;;;9.83;2.77;;;;;;;-145.18;100.00;60484.78;5072414;28;20500;-66
2023/04/11 03:54:28;;;;;;;13.70;3.53;;;;;;;-145.18;100.00;60484.78;5070224;28;20137;-66
2023/04/11 03:56:53;;;;;;;12.47;3.13;;;;;;;-145.18;100.00;60484.78;5063834;28;20128;-66
2023/04/11 03:59:19;;;;;;;14.90;3.63;;;;;;;-145.18;100.00;60484.78;5073642;28;20036;-66
2023/04/11 04:01:45;;;;;;;13.00;2.83;;;;;;;-145.18;100.00;60484.78;5059683;28;20396;-66
2023/04/11 04:04:10;;;;;;;12.77;3.27;;;;;;;-145.18;100.00;60484.78;5064677;28;20045;-66
2023/04/11 04:06:36;;;;;;;15.97;3.27;;;;;;;-145.18;100.00;60484.78;5068027;28;20384;-68
2023/04/11 04:09:02;;;;;;;13.13;3.23;;;;;;;-145.18;100.00;60484.78;5058727;28;20032;-68
2023/04/11 04:11:28;;;;;;;10.67;2.97;;;;;;;-145.18;100.00;60484.78;5064888;28;20028;-68
2023/04/11 04:13:54;;;;;;;16.07;3.10;;;;;;;-145.18;100.00;60484.78;5071161;28;20099;-69
2023/04/11 04:16:19;;;;;;;13.97;2.73;;;;;;;-145.18;100.00;60484.78;5066659;28;20021;-67
2023/04/11 04:18:45;;;;;;;15.87;3.40;;;;;;;-145.18;100.00;60484.78;5060962;28;21028;-66
2023/04/11 04:21:11;;;;;;;12.40;2.60;;;;;;;-145.18;100.00;60484.78;5060806;28;20085;-66
2023/04/11 04:23:37;;;;;;;20.30;3.87;;;;;;;-145.18;100.00;60484.78;5070283;28;20095;-67
2023/04/11 04:26:04;;;;;;;19.93;3.97;;;;;;;-145.18;100.00;60484.78;5074494;28;20029;-67
2023/04/11 04:28:29;;;;;;;14.57;3.63;;;;;;;-145.18;100.00;60484.78;5073703;28;20024;-67
2023/04/11 04:30:56;;;;;;;20.40;3.80;;;;;;;-145.18;100.00;60484.78;5053399;28;20378;-68
2023/04/11 04:33:23;;;;;;;17.57;3.80;;;;;;;-145.18;100.00;60484.78;5054219;28;20017;-68
2023/04/11 04:35:58;;;;;;;13.47;3.50;;;;;;;-145.18;100.00;60484.78;5055139;28;20104;-68
2023/04/11 04:38:24;;;;;;;16.83;3.50;;;;;;;-145.18;100.00;60484.78;5069191;28;20032;-68
2023/04/11 04:40:53;;;;;;;16.70;2.53;;;;;;;-145.18;100.00;60484.78;5073424;28;20029;-67
2023/04/11 04:43:22;;;;;;;15.03;3.10;;;;;;;-145.18;100.00;60484.78;5060579;28;20535;-68
2023/04/11 04:45:47;;;;;;;11.03;2.57;;;;;;;-145.18;100.00;60484.78;5053736;28;20025;-67
2023/04/11 04:48:13;;;;;;;14.10;3.03;;;;;;;-145.18;100.00;60484.78;5071236;28;20074;-67
2023/04/11 04:50:39;;;;;;;7.20;2.23;;;;;;;-145.18;100.00;60484.78;5068544;28;20392;-66
2023/04/11 04:53:05;;;;;;;10.27;2.77;;;;;;;-145.18;100.00;60484.78;5071831;28;20032;-67
2023/04/11 04:55:32;;;;;;;11.77;2.90;;;;;;;-145.18;100.00;60484.78;5061346;28;20021;-67
2023/04/11 04:57:57;;;;;;;9.83;2.90;;;;;;;-145.18;100.00;60484.78;5053804;28;20029;-67
2023/04/11 05:00:23;;;;;;;12.47;3.00;;;;;;;-145.18;100.00;60484.78;5053882;28;20029;-67
2023/04/11 05:02:48;;;;;;;8.33;2.90;;;;;;;-145.18;100.00;60484.78;5053489;28;20053;-66
2023/04/11 05:05:14;;;;;;;10.00;2.70;;;;;;;-145.18;100.00;60484.78;5054049;28;20021;-67
2023/04/11 05:07:41;;;;;;;13.77;3.57;;;;;;;-145.18;100.00;60484.78;5053697;28;20098;-67
2023/04/11 05:10:07;;;;;;;11.07;3.47;;;;;;;-145.18;100.00;60484.78;5053562;28;20017;-67
2023/04/11 05:12:33;;;;;;;14.50;2.80;;;;;;;-145.18;100.00;60484.78;5059392;28;20035;-67
2023/04/11 05:14:58;;;;;;;12.90;3.20;;;;;;;-145.18;100.00;60484.78;5057633;28;20020;-67
2023/04/11 05:17:25;;;;;;;12.23;3.37;;;;;;;-145.18;100.00;60484.78;5050997;28;20075;-66
2023/04/11 05:19:50;;;;;;;12.53;3.23;;;;;;;-145.18;100.00;60484.78;5047485;28;20037;-67
2023/04/11 05:22:16;;;;;;;12.90;3.33;;;;;;;-145.18;100.00;60484.78;5053484;28;20035;-67
2023/04/11 05:24:41;;;;;;;13.93;3.50;;;;;;;-145.18;100.00;60484.78;5053460;28;20030;-66
2023/04/11 05:27:07;;;;;;;9.70;3.47;;;;;;;-145.18;100.00;60484.78;5052215;28;20052;-67
2023/04/11 05:29:32;;;;;;;12.20;3.60;;;;;;;-145.18;100.00;60484.78;5068631;28;20118;-67
2023/04/11 05:31:58;;;;;;;18.60;5.27;;;;;;;-145.18;100.00;60484.78;5058835;28;20114;-67
2023/04/11 05:34:23;;;;;;;14.90;4.50;;;;;;;-145.18;100.00;60484.78;5062787;28;20032;-66
2023/04/11 05:36:49;;;;;;;14.70;4.33;;;;;;;-145.18;100.00;60484.78;5060306;28;20027;-66
2023/04/11 05:39:14;;;;;;;20.23;4.17;;;;;;;-145.18;100.00;60484.78;5053314;28;20099;-66
2023/04/11 05:41:40;;;;;;;11.27;3.67;;;;;;;-145.18;100.00;60484.78;5053002;28;20024;-66
2023/04/11 05:44:06;;;;;;;20.97;5.13;;;;;;;-145.18;100.00;60484.78;5052920;28;20069;-66
2023/04/11 05:46:35;;;;;;;15.93;3.93;;;;;;;-145.18;100.00;60484.78;5058789;28;20064;-66
2023/04/11 05:49:00;;;;;;;12.67;2.90;;;;;;;-145.18;100.00;60484.78;5065449;28;20357;-66
2023/04/11 05:51:26;;;;;;;14.27;3.03;;;;;;;-145.18;100.00;60484.78;5065553;28;20083;-66
2023/04/11 05:53:51;;;;;;;16.33;3.40;;;;;;;-145.18;100.00;60484.78;5056745;28;20024;-66
2023/04/11 05:56:17;;;;;;;15.50;2.83;;;;;;;-145.18;100.00;60484.78;5067366;28;20027;-66
2023/04/11 05:58:43;;;;;;;8.30;2.50;;;;;;;-145.18;100.00;60484.78;5070969;28;20503;-65
2023/04/11 06:01:13;;;;;;;8.13;1.80;;;;;;;-145.18;100.00;60484.78;5061066;28;20027;-66
2023/04/11 06:03:38;;;;;;;10.70;2.00;;;;;;;-145.18;100.00;60484.78;5052448;28;20056;-66
2023/04/11 06:06:04;;;;;;;8.67;1.97;;;;;;;-145.18;100.00;60484.78;5052893;28;20021;-66
2023/04/11 06:08:30;;;;;;;7.57;2.20;;;;;;;-145.18;100.00;60484.78;5058121;28;20082;-65
2023/04/11 06:10:55;;;;;;;8.87;2.37;;;;;;;-145.18;100.00;60484.78;5060662;28;20424;-65
2023/04/11 06:13:21;;;;;;;7.90;2.37;;;;;;;-145.18;100.00;60484.78;5052971;28;20183;-65
2023/04/11 06:15:46;;;;;;;7.90;2.07;;;;;;;-145.18;100.00;60484.78;5057986;28;20492;-65
2023/04/11 06:18:12;;;;;;;9.73;2.17;;;;;;;-145.18;100.00;60484.78;5067244;28;20020;-65
2023/04/11 06:20:38;;;;;;;10.63;2.60;;;;;;;-145.18;100.00;60484.78;5049234;28;20033;-65
2023/04/11 06:23:03;;;;;;;10.93;2.80;;;;;;;-145.18;100.00;60484.78;5055529;28;20033;-63
2023/04/11 06:25:29;;;;;;;8.47;1.77;;;;;;;-145.18;100.00;60484.78;5057970;28;20028;-63
2023/04/11 06:27:54;;;;;;;9.77;2.80;;;;;;;-145.18;100.00;60484.78;5062498;28;20032;-62
2023/04/11 06:30:20;;;;;;;6.37;1.97;;;;;;;-145.18;100.00;60484.78;5068558;28;20070;-63
2023/04/11 06:32:45;;;;;;;10.33;2.57;;;;;;;-145.18;100.00;60484.78;5052999;28;20025;-64
2023/04/11 06:35:11;;;;;;;8.97;2.40;;;;;;;-145.18;100.00;60484.78;5056335;28;20825;-64
2023/04/11 06:37:37;;;;;;;11.67;2.23;;;;;;;-145.18;100.00;60484.78;5056252;28;20036;-65
2023/04/11 06:40:05;;;;;;;9.17;2.40;;;;;;;-145.18;100.00;60484.78;5059680;28;20029;-65
2023/04/11 06:42:31;;;;;;;13.10;3.60;;;;;;;-145.18;100.00;60484.78;5055675;28;20421;-65
2023/04/11 06:44:56;;;;;;;8.63;2.60;;;;;;;-145.18;100.00;60484.78;5051669;28;20040;-64
2023/04/11 06:47:22;;;;;;;11.87;2.70;;;;;;;-145.18;100.00;60484.78;5051416;28;20496;-64
2023/04/11 06:49:48;;;;;;;11.17;3.30;;;;;;;-145.18;100.00;60484.78;5051963;28;20052;-65
2023/04/11 06:52:13;;;;;;;15.10;3.03;;;;;;;-145.18;100.00;60484.78;5051790;28;20362;-65
2023/04/11 06:54:39;;;;;;;6.40;2.53;;;;;;;-145.18;100.00;60484.78;5057764;28;20030;-65
2023/04/11 06:57:05;;;;;;;8.20;2.30;;;;;;;-145.18;100.00;60484.78;5032503;28;20025;-65
2023/04/11 06:59:31;;;;;;;9.37;3.13;;;;;;;-145.18;100.00;60484.78;5034257;28;20477;-65
2023/04/11 07:01:57;;;;;;;10.10;3.00;;;;;;;-145.18;100.00;60484.78;5036491;28;20056;-65
2023/04/11 07:04:23;;;;;;;9.47;3.23;;;;;;;-145.18;100.00;60484.78;5035812;28;20521;-65
2023/04/11 07:06:48;;;;;;;8.70;3.17;;;;;;;-145.18;100.00;60484.78;5035109;28;20049;-65
2023/04/11 07:09:14;;;;;;;7.87;2.87;;;;;;;-145.18;100.00;60484.78;5048405;28;20103;-66
2023/04/11 07:11:40;;;;;;;5.27;2.10;;;;;;;-145.18;100.00;60484.78;5056005;28;20021;-66
2023/04/11 07:14:05;;;;;;;6.23;2.13;;;;;;;-145.18;100.00;60484.78;5055964;28;20033;-65
2023/04/11 07:16:32;;;;;;;7.00;3.37;;;;;;;-145.18;100.00;60484.78;5055859;28;20380;-65
2023/04/11 07:18:58;;;;;;;10.63;3.43;;;;;;;-145.18;100.00;60484.78;5055812;28;20021;-66
2023/04/11 07:21:26;;;;;;;5.93;2.53;;;;;;;-145.18;100.00;60484.78;5055976;28;20024;-65
2023/04/11 07:23:52;;;;;;;9.70;3.30;;;;;;;-145.18;100.00;60484.78;5055697;28;20050;-65
2023/04/11 07:26:17;;;;;;;6.87;3.00;;;;;;;-145.18;100.00;60484.78;5055876;28;20099;-65
2023/04/11 07:28:43;;;;;;;10.60;3.47;;;;;;;-145.18;100.00;60484.78;5055959;28;20406;-65
2023/04/11 07:31:13;;;;;;;9.03;3.87;;;;;;;-145.18;100.00;60484.78;5055839;28;20021;-65
2023/04/11 07:33:42;;;;;;;7.73;3.00;;;;;;;-145.18;100.00;60484.78;5055531;28;20057;-65
2023/04/11 07:36:08;;;;;;;8.33;3.30;;;;;;;-145.18;100.00;60484.78;5055784;28;20029;-64
2023/04/11 07:38:36;;;;;;;5.43;2.17;;;;;;;-145.18;100.00;60484.78;5055370;28;20032;-64
2023/04/11 07:41:03;;;;;;;6.73;2.17;;;;;;;-145.18;100.00;60484.78;5055405;28;20036;-64
2023/04/11 07:43:29;;;;;;;5.07;2.13;;;;;;;-145.18;100.00;60484.78;5055126;28;20028;-65
2023/04/11 07:45:56;;;;;;;7.20;1.87;;;;;;;-145.18;100.00;60484.78;5055539;28;20051;-65
2023/04/11 07:48:22;;;;;;;6.30;1.57;;;;;;;-145.18;100.00;60484.78;5055154;28;20025;-65
2023/04/11 07:50:47;;;;;;;5.90;2.00;;;;;;;-145.18;100.00;60484.78;5055476;28;20477;-65
2023/04/11 07:53:13;;;;;;;6.07;2.37;;;;;;;-145.18;100.00;60484.78;5055280;28;20024;-64
2023/04/11 07:55:39;;;;;;;7.60;2.50;;;;;;;-145.18;100.00;60484.78;5055192;28;20032;-64
2023/04/11 07:58:04;;;;;;;4.60;1.93;;;;;;;-145.18;100.00;60484.78;5055367;28;20028;-65
2023/04/11 08:00:32;;;;;;;8.67;2.40;;;;;;;-145.18;100.00;60484.78;5054704;28;20504;-65
2023/04/11 08:03:01;;;;;;;7.73;2.00;;;;;;;-145.18;100.00;60484.78;5054612;28;20060;-66
2023/04/11 08:05:28;;;;;;;8.57;2.20;;;;;;;-145.18;100.00;60484.78;5055171;28;20017;-64
2023/04/11 08:07:54;;;;;;;6.97;2.70;;;;;;;-145.18;100.00;60484.78;5054192;28;20029;-64
2023/04/11 08:10:20;;;;;;;9.63;2.47;;;;;;;-145.18;100.00;60484.78;5054519;28;20074;-64
2023/04/11 08:12:45;;;;;;;11.30;3.53;;;;;;;-145.18;100.00;60484.78;5054357;28;20476;-64
2023/04/11 08:15:11;;;;;;;6.17;2.10;;;;;;;-145.18;100.00;60484.78;5055108;28;20465;-64
2023/04/11 08:17:37;;;;;;;8.10;2.23;;;;;;;-145.18;100.00;60484.78;5054669;28;20025;-63
2023/04/11 08:20:04;;;;;;;6.47;2.07;;;;;;;-145.18;100.00;60484.78;5054697;28;20025;-63
2023/04/11 08:22:33;;;;;;;6.73;2.83;;;;;;;-145.18;100.00;60484.78;5054444;28;20021;-64
2023/04/11 08:24:58;;;;;;;12.10;3.47;;;;;;;-145.18;100.00;60484.78;5053815;28;20055;-62
2023/04/11 08:27:24;;;;;;;5.70;1.90;;;;;;;-145.18;100.00;60484.78;5054388;28;20024;-63
2023/04/11 08:29:50;;;;;;;9.30;2.27;;;;;;;-145.18;100.00;60484.78;5054776;28;20127;-63
2023/04/11 08:32:15;;;;;;;8.40;2.07;;;;;;;-145.18;100.00;60484.78;5054606;28;20516;-63
2023/04/11 08:34:40;;;;;;;4.30;1.43;;;;;;;-145.18;100.00;60484.78;5055231;28;20358;-64
2023/04/11 08:37:06;;;;;;;5.90;1.87;;;;;;;-145.18;100.00;60484.78;5054582;28;20047;-64
2023/04/11 08:39:31;;;;;;;5.53;1.73;;;;;;;-145.18;100.00;60484.78;5054324;28;20025;-64
2023/04/11 08:41:58;;;;;;;9.40;2.80;;;;;;;-145.18;100.00;60484.78;5054626;28;20104;-62
2023/04/11 08:44:24;;;;;;;11.90;2.67;;;;;;;-145.18;100.00;60484.78;5054255;28;20029;-62
2023/04/11 08:46:49;;;;;;;6.30;1.80;;;;;;;-145.18;100.00;60484.78;5054058;28;20128;-62
2023/04/11 08:49:15;;;;;;;6.27;1.93;;;;;;;-145.18;100.00;60484.78;5054451;28;20187;-62
2023/04/11 08:51:42;;;;;;;3.73;1.50;;;;;;;-145.18;100.00;60484.78;5054285;28;20025;-62
2023/04/11 08:54:08;;;;;;;5.47;1.90;;;;;;;-145.18;100.00;60484.78;5054416;28;20063;-62
2023/04/11 08:56:34;;;;;;;8.17;2.23;;;;;;;-145.18;100.00;60484.78;5053811;28;20049;-62
2023/04/11 08:59:00;;;;;;;7.20;2.00;;;;;;;-145.18;100.00;60484.78;5054215;28;20392;-62
2023/04/11 09:01:31;;;;;;;7.63;2.40;;;;;;;-145.18;100.00;60484.78;5053737;28;20017;-63
2023/04/11 09:03:58;;;;;;;4.67;1.60;;;;;;;-145.18;100.00;60484.78;5053542;28;20048;-64
2023/04/11 09:06:29;;;;;;;5.87;2.00;;;;;;;-145.18;100.00;60484.78;5053979;28;20104;-63
2023/04/11 09:08:56;;;;;;;6.35;1.90;;;;;;;-145.18;100.00;60484.78;5035932;28;20028;-63
2023/04/11 09:11:21;;;;;;;8.73;2.07;;;;;;;-145.18;100.00;60484.78;5053388;28;20418;-62
2023/04/11 09:14:07;;;;;;;7.00;1.33;;;;;;;-145.18;100.00;60484.78;5053697;28;20055;-62
2023/04/11 09:16:33;;;;;;;8.73;2.00;;;;;;;-145.18;100.00;60484.78;5053914;28;20028;-62
2023/04/11 09:18:59;;;;;;;10.48;1.20;;;;;;;-145.18;100.00;60484.78;5053572;28;20381;-62
2023/04/11 09:21:26;;;;;;;7.43;1.45;;;;;;;-145.18;100.00;60484.78;5053463;28;20020;-63
2023/04/11 09:23:53;;;;;;;5.13;1.33;;;;;;;-145.18;100.00;60484.78;5052971;28;20469;-63
2023/04/11 09:26:26;;;;;;;7.30;1.90;;;;;;;-145.18;100.00;60484.78;5053678;28;20053;-63
2023/04/11 09:28:52;;;;;;;5.57;1.50;;;;;;;-145.18;100.00;60484.78;5053356;28;20028;-63
2023/04/11 09:31:19;;;;;;;4.47;1.47;;;;;;;-145.18;100.00;60484.78;5053574;28;20017;-63
2023/04/11 09:33:58;;;;;;;8.53;2.90;;;;;;;-145.18;100.00;60484.78;5053701;28;20066;-64
2023/04/11 09:36:26;;;;;;;4.37;1.63;;;;;;;-145.18;100.00;60484.78;5053631;28;20412;-64
2023/04/11 09:38:52;;;;;;;7.23;1.50;;;;;;;-145.18;100.00;60484.78;5053192;28;20112;-63
2023/04/11 09:41:35;;;;;;;4.60;1.20;;;;;;;-145.18;100.00;60484.78;5053580;28;20492;-62
2023/04/11 09:44:01;;;;;;;6.23;1.30;;;;;;;-145.18;100.00;60484.78;5053222;28;20029;-63
2023/04/11 09:46:27;;;;;;;6.53;1.80;;;;;;;-145.18;100.00;60484.78;5053444;28;20062;-62
2023/04/11 09:48:53;;;;;;;7.35;1.48;;;;;;;-145.18;100.00;60484.78;5053205;28;20504;-63
2023/04/11 09:51:19;;;;;;;3.35;1.08;;;;;;;-145.18;100.00;60484.78;5053364;28;20469;-62
2023/04/11 09:53:45;;;;;;;4.25;1.15;;;;;;;-145.18;100.00;60484.78;5053316;28;20488;-63
2023/04/11 09:56:11;;;;;;;5.80;1.10;;;;;;;-145.18;100.00;60484.78;5053356;28;20017;-62
2023/04/11 09:58:38;;;;;;;3.55;1.00;;;;;;;-145.18;100.00;60484.78;5052660;28;20120;-64
2023/04/11 10:01:07;;;;;;;5.27;1.50;;;;;;;-145.18;100.00;60484.78;5053290;28;20489;-64
2023/04/11 10:03:35;;;;;;;6.73;1.87;;;;;;;-145.18;100.00;60484.78;5052630;28;20124;-63
2023/04/11 10:06:11;;;;;;;5.43;1.40;;;;;;;-145.18;100.00;60484.78;5053152;28;20428;-63
2023/04/11 10:08:38;;;;;;;8.23;1.48;;;;;;;-145.18;100.00;60484.78;5052017;28;20021;-63
2023/04/11 10:11:08;;;;;;;7.05;2.03;;;;;;;-145.18;100.00;60484.78;5053081;28;20021;-64
2023/04/11 10:13:40;;;;;;;8.97;1.40;;;;;;;-145.18;100.00;60484.78;5052791;28;20028;-64
2023/04/11 10:16:25;;;;;;;9.07;2.40;;;;;;;-145.18;100.00;60484.78;5052868;28;20025;-63
2023/04/11 10:19:31;;;;;;;10.77;3.05;;;;;;;-145.18;100.00;60484.78;5052751;28;20020;-64
2023/04/11 10:21:57;;;;;;;4.07;1.52;;;;;;;-145.18;100.00;60484.78;5052595;28;20061;-64
2023/04/11 10:24:25;;;;;;;6.10;1.53;;;;;;;-145.18;100.00;60484.78;5053000;28;20051;-64
2023/04/11 10:26:54;;;;;;;4.47;1.20;;;;;;;-145.18;100.00;60484.78;5052654;28;20029;-65
2023/04/11 10:29:50;;;;;;;9.23;2.23;;;;;;;-145.18;100.00;60484.78;5052988;28;20477;-65
2023/04/11 10:32:23;;;;;;;5.57;1.07;;;;;;;-145.18;100.00;60484.78;5035691;28;20485;-65
2023/04/11 10:35:35;;;;;;;6.70;2.00;;;;;;;-145.18;100.00;60484.78;5055497;28;20032;-65
2023/04/11 10:38:00;;;;;;;3.53;1.02;;;;;;;-145.18;100.00;60484.78;5055172;28;20039;-66
2023/04/11 10:40:26;;;;;;;5.87;1.57;;;;;;;-145.18;100.00;60484.78;5056908;28;20111;-65
2023/04/11 10:42:51;;;;;;;3.57;1.20;;;;;;;-145.18;100.00;60484.78;5056823;28;20532;-66
2023/04/11 10:45:29;;;;;;;5.40;1.30;;;;;;;-145.18;100.00;60484.78;5056780;28;20044;-67
2023/04/11 10:48:12;;;;;;;1.67;0.83;;;;;;;-145.18;100.00;60484.78;5056475;28;20392;-67
2023/04/11 10:50:40;;;;;;;2.57;0.93;;;;;;;-145.18;100.00;60484.78;5056440;28;20024;-67
2023/04/11 10:53:09;;;;;;;3.00;0.87;;;;;;;-145.18;100.00;60484.78;5056779;28;20032;-67
2023/04/11 10:55:46;;;;;;;5.07;1.10;;;;;;;-145.18;100.00;60484.78;5056219;28;20082;-67
2023/04/11 10:58:20;;;;;;;7.83;1.27;;;;;;;-145.18;100.00;60484.78;5056046;28;20087;-67
2023/04/11 11:01:15;;;;;;;4.80;0.90;;;;;;;-145.18;100.00;60484.78;5056236;28;20029;-67
2023/04/11 11:03:51;;;;;;;2.20;0.77;;;;;;;-145.18;100.00;60484.78;5055489;28;20037;-64
2023/04/11 11:06:17;;;;;;;3.57;0.70;;;;;;;-145.18;100.00;60484.78;5039636;28;20017;-65
2023/04/11 11:08:45;;;;;;;4.67;1.00;;;;;;;-145.18;100.00;60484.78;5056320;28;20078;-67
2023/04/11 11:11:12;;;;;;;6.87;2.50;;;;;;;-145.18;100.00;60484.78;5055904;28;20100;-66